createdAt,value
2019-04-29T11:29:09.401Z,1315
2019-04-29T11:29:32.252Z,562
2019-04-29T11:30:22.515Z,735
2019-04-29T11:31:13.979Z,1377
2019-04-29T11:32:52.764Z,1315
2019-04-29T11:33:22.404Z,1168
2019-04-29T11:34:15.722Z,1421
2019-04-29T11:35:13.159Z,1484
2019-04-29T11:36:34.921Z,1627
2019-04-29T11:42:54.321Z,877
2019-04-29T11:43:52.801Z,2358
2019-04-29T11:57:59.874Z,790
2019-04-29T11:58:06.692Z,1615
2019-04-29T11:58:27.005Z,1606
2019-04-29T11:58:47.445Z,1605
2019-04-29T12:00:16.782Z,1467
2019-04-29T12:00:37.183Z,1455
2019-04-29T12:00:57.592Z,1479
2019-04-29T12:01:37.723Z,1465
2019-04-29T12:02:48.475Z,1501
2019-04-29T12:03:46.484Z,1236
2019-04-29T12:05:14.101Z,0
2019-04-29T12:06:56.187Z,0
2019-04-29T12:08:18.414Z,2
2019-04-29T12:09:14.724Z,110
2019-04-29T12:11:06.873Z,103
2019-04-29T12:13:25.585Z,6
2019-04-29T12:14:59.437Z,0
2019-04-29T12:17:44.989Z,580
2019-04-29T12:18:45.131Z,590
2019-04-29T12:19:45.173Z,599
2019-04-29T12:20:45.275Z,1081
2019-04-29T12:21:45.465Z,1260
2019-04-29T12:22:49.049Z,2007
2019-04-29T12:23:47.651Z,10
2019-04-29T12:24:46.878Z,26656
2019-04-29T12:25:45.717Z,13664
2019-04-29T12:26:46.889Z,23808
2019-04-29T12:27:45.952Z,15656
2019-04-29T12:28:48.047Z,19376
2019-04-29T12:29:48.729Z,19232
2019-04-29T12:30:48.263Z,19584
2019-04-29T12:31:51.100Z,20880
2019-04-29T12:32:46.476Z,16368
2019-04-29T12:33:46.652Z,21568
2019-04-29T12:34:46.749Z,19808
2019-04-29T12:35:51.842Z,19568
2019-04-29T12:36:55.715Z,20760
2019-04-29T12:37:47.975Z,12181
2019-04-29T12:38:51.036Z,11744
2019-04-29T12:39:48.165Z,11288
2019-04-29T12:40:55.006Z,12383
2019-04-29T12:41:50.588Z,10574
2019-04-29T12:42:47.811Z,171
2019-04-29T12:43:53.531Z,370
2019-04-29T12:44:48.686Z,369
2019-04-29T12:45:47.783Z,357
2019-04-29T12:46:49.019Z,347
2019-04-29T12:47:47.974Z,343
2019-04-29T12:48:48.186Z,335
2019-04-29T12:49:50.034Z,325
2019-04-29T12:50:50.930Z,296
2019-04-29T12:51:49.208Z,289
2019-04-29T12:52:48.318Z,302
2019-04-29T12:53:48.879Z,303
2019-04-29T12:54:49.589Z,304
2019-04-29T12:55:53.588Z,301
2019-04-29T12:56:50.840Z,299
2019-04-29T12:57:51.380Z,298
2019-04-29T12:58:55.015Z,297
2019-04-29T12:59:50.039Z,304
2019-04-29T13:00:59.632Z,311
2019-04-29T13:01:58.259Z,316
2019-04-29T13:02:51.261Z,318
2019-04-29T13:03:50.408Z,319
2019-04-29T13:04:52.488Z,322
2019-04-29T13:05:58.135Z,327
2019-04-29T13:06:50.644Z,333
2019-04-29T13:07:49.576Z,341
2019-04-29T13:08:49.804Z,336
2019-04-29T13:09:49.732Z,325
2019-04-29T13:10:49.858Z,311
2019-04-29T13:12:05.046Z,296
2019-04-29T13:12:51.165Z,285
2019-04-29T13:13:56.107Z,277
2019-04-29T13:15:02.472Z,271
2019-04-29T13:15:54.454Z,266
2019-04-29T13:16:55.617Z,262
2019-04-29T13:18:03.010Z,247
2019-04-29T13:18:55.634Z,253
2019-04-29T13:20:01.798Z,259
2019-04-29T13:21:08.876Z,267
2019-04-29T13:21:52.223Z,265
2019-04-29T13:22:51.373Z,270
2019-04-29T13:24:05.220Z,273
2019-04-29T13:24:52.683Z,279
2019-04-29T13:25:55.851Z,272
2019-04-29T13:26:51.774Z,275
2019-04-29T13:27:55.515Z,272
